Time;durP1;ratioP1;P1;durP2;ratioP2;P2;SDS_P1;SDS_P2;PMS_P1;PMS_P2;Temp;Humidity;BMP_temperature;BMP_pressure;BME280_temperature;BME280_humidity;BME280_pressure;Samples;Min_cycle;Max_cycle;Signal;HPM_P1;HPM_P2
2023/04/25 00:01:21;;;;;;;1.70;1.70;;;18.60;66.90;;;;;;5028146;28;43843;-74
2023/04/25 00:03:50;;;;;;;1.60;1.60;;;18.60;66.90;;;;;;5025393;28;45253;-74
2023/04/25 00:06:18;;;;;;;1.40;1.40;;;18.50;66.90;;;;;;5030214;28;43471;-75
2023/04/25 00:08:46;;;;;;;1.73;1.73;;;18.50;66.80;;;;;;5025737;28;43427;-75
2023/04/25 00:11:14;;;;;;;1.70;1.70;;;18.50;66.90;;;;;;5029191;28;43570;-75
2023/04/25 00:13:43;;;;;;;1.40;1.40;;;18.50;67.00;;;;;;5033568;28;45748;-75
2023/04/25 00:16:14;;;;;;;1.67;1.67;;;18.50;67.20;;;;;;5028991;28;44247;-74
2023/04/25 00:18:42;;;;;;;1.40;1.40;;;18.40;67.40;;;;;;5031929;28;43375;-76
2023/04/25 00:21:10;;;;;;;1.53;1.53;;;18.40;67.40;;;;;;5029754;28;43442;-76
2023/04/25 00:23:38;;;;;;;1.50;1.50;;;18.40;67.40;;;;;;5034337;28;43936;-75
2023/04/25 00:26:06;;;;;;;1.43;1.43;;;18.40;67.40;;;;;;5034738;28;43535;-75
2023/04/25 00:28:34;;;;;;;1.40;1.40;;;18.30;67.30;;;;;;5030630;28;43403;-75
2023/04/25 00:31:03;;;;;;;1.70;1.70;;;18.30;67.50;;;;;;5029410;28;45105;-75
2023/04/25 00:33:31;;;;;;;1.60;1.60;;;18.30;67.60;;;;;;5027806;28;43690;-75
2023/04/25 00:35:59;;;;;;;1.50;1.50;;;18.30;67.50;;;;;;5024065;28;46124;-75
2023/04/25 00:38:27;;;;;;;1.40;1.40;;;18.30;67.40;;;;;;5029320;28;43894;-75
2023/04/25 00:40:57;;;;;;;1.90;1.80;;;18.40;67.50;;;;;;5034333;28;43910;-75
2023/04/25 00:43:25;;;;;;;1.63;1.63;;;18.30;67.50;;;;;;5028821;28;43874;-75
2023/04/25 00:45:57;;;;;;;1.70;1.70;;;18.30;67.60;;;;;;5028894;28;44620;-74
2023/04/25 00:48:26;;;;;;;1.40;1.40;;;18.30;67.70;;;;;;5029020;28;43811;-76
2023/04/25 00:50:54;;;;;;;1.50;1.50;;;18.40;67.50;;;;;;5030477;28;43602;-75
2023/04/25 00:53:22;;;;;;;1.30;1.30;;;18.50;67.10;;;;;;5029465;28;43944;-75
2023/04/25 00:55:51;;;;;;;1.60;1.60;;;18.60;66.90;;;;;;5030599;28;45118;-75
2023/04/25 00:58:19;;;;;;;1.43;1.43;;;18.60;66.80;;;;;;5030123;28;43458;-76
2023/04/25 01:00:49;;;;;;;1.53;1.53;;;18.60;66.90;;;;;;5027475;28;43401;-76
2023/04/25 01:03:19;;;;;;;1.47;1.47;;;18.50;66.80;;;;;;5027451;28;43897;-75
2023/04/25 01:05:49;;;;;;;1.50;1.50;;;18.50;66.80;;;;;;5031176;28;44694;-75
2023/04/25 01:08:17;;;;;;;1.63;1.63;;;18.50;66.80;;;;;;5030299;28;43533;-76
2023/04/25 01:10:45;;;;;;;1.47;1.47;;;18.50;66.90;;;;;;5031350;28;43485;-75
2023/04/25 01:13:13;;;;;;;1.57;1.57;;;18.50;67.00;;;;;;5028471;28;44203;-77
2023/04/25 01:15:40;;;;;;;1.43;1.43;;;18.40;67.30;;;;;;5027040;28;44650;-75
2023/04/25 01:18:08;;;;;;;1.50;1.50;;;18.40;67.20;;;;;;5031325;28;43436;-74
2023/04/25 01:20:37;;;;;;;1.30;1.30;;;18.40;67.20;;;;;;5030079;28;43437;-76
2023/04/25 01:23:06;;;;;;;1.50;1.50;;;18.40;67.30;;;;;;5036370;28;46018;-74
2023/04/25 01:25:34;;;;;;;1.40;1.40;;;18.30;67.20;;;;;;5041229;28;44780;-76
2023/04/25 01:28:02;;;;;;;1.50;1.50;;;18.30;67.40;;;;;;5033488;28;44037;-76
2023/04/25 01:30:31;;;;;;;1.50;1.50;;;18.30;67.50;;;;;;5036227;28;43400;-76
2023/04/25 01:32:59;;;;;;;1.60;1.60;;;18.30;67.40;;;;;;5032429;28;46116;-76
2023/04/25 01:35:29;;;;;;;1.50;1.50;;;18.30;67.40;;;;;;5037182;28;44471;-76
2023/04/25 01:37:57;;;;;;;1.47;1.47;;;18.30;67.50;;;;;;5043574;28;43965;-74
2023/04/25 01:40:26;;;;;;;1.43;1.43;;;18.30;67.50;;;;;;5037819;28;43558;-74
2023/04/25 01:42:54;;;;;;;1.70;1.70;;;18.30;67.70;;;;;;5036162;28;43797;-76
2023/04/25 01:45:22;;;;;;;1.60;1.60;;;18.30;67.70;;;;;;5036492;28;43964;-76
2023/04/25 01:47:51;;;;;;;1.60;1.60;;;18.40;67.40;;;;;;5038419;28;43922;-76
2023/04/25 01:50:20;;;;;;;1.30;1.30;;;18.50;67.00;;;;;;5045316;28;43328;-76
2023/04/25 01:52:48;;;;;;;1.40;1.40;;;18.60;66.90;;;;;;5036853;28;45961;-74
2023/04/25 01:55:17;;;;;;;1.60;1.60;;;18.60;66.90;;;;;;5036060;28;44517;-77
2023/04/25 01:57:59;;;;;;;1.53;1.53;;;18.50;66.70;;;;;;5034978;28;43361;-75
2023/04/25 02:00:43;;;;;;;1.50;1.50;;;18.50;66.90;;;;;;5033856;28;43570;-74
2023/04/25 02:03:11;;;;;;;1.40;1.40;;;18.50;66.70;;;;;;5030892;28;46036;-75
2023/04/25 02:05:40;;;;;;;1.40;1.40;;;18.50;66.80;;;;;;5037321;28;44548;-75
2023/04/25 02:08:10;;;;;;;1.50;1.50;;;18.40;66.90;;;;;;5035581;28;43376;-76
2023/04/25 02:10:38;;;;;;;1.57;1.57;;;18.40;67.10;;;;;;5033419;28;43496;-76
2023/04/25 02:13:28;;;;;;;1.40;1.40;;;18.40;67.40;;;;;;5034820;28;45066;-75
2023/04/25 02:16:03;;;;;;;1.60;1.60;;;18.30;67.20;;;;;;5040420;28;44739;-75
2023/04/25 02:18:32;;;;;;;1.50;1.50;;;18.30;67.30;;;;;;5038114;28;43409;-75
2023/04/25 02:21:01;;;;;;;1.47;1.47;;;18.30;67.30;;;;;;5036565;28;43435;-76
2023/04/25 02:23:29;;;;;;;1.50;1.50;;;18.30;67.40;;;;;;5037133;28;43928;-74
2023/04/25 02:25:59;;;;;;;1.50;1.50;;;18.30;67.50;;;;;;5029787;28;43459;-75
2023/04/25 02:28:29;;;;;;;1.40;1.40;;;18.30;67.50;;;;;;5027298;28;43354;-76
2023/04/25 02:30:57;;;;;;;1.37;1.37;;;18.30;67.50;;;;;;5027087;28;43916;-77
2023/04/25 02:33:25;;;;;;;1.30;1.30;;;18.30;67.50;;;;;;5031846;28;44806;-75
2023/04/25 02:35:53;;;;;;;1.50;1.50;;;18.30;67.50;;;;;;5032919;28;45189;-74
2023/04/25 02:38:22;;;;;;;1.63;1.63;;;18.30;67.50;;;;;;5028445;28;43372;-75
2023/04/25 02:40:50;;;;;;;1.43;1.43;;;18.20;67.60;;;;;;5036773;28;43899;-75
2023/04/25 02:43:18;;;;;;;1.30;1.30;;;18.30;67.60;;;;;;5035389;28;43659;-74
2023/04/25 02:45:47;;;;;;;1.60;1.60;;;18.40;67.40;;;;;;5033316;28;43509;-76
2023/04/25 02:48:15;;;;;;;1.50;1.50;;;18.50;66.90;;;;;;5025763;28;43484;-75
2023/04/25 02:50:43;;;;;;;1.70;1.70;;;18.50;66.70;;;;;;5035276;28;43464;-77
2023/04/25 02:53:11;;;;;;;1.40;1.40;;;18.50;66.70;;;;;;5031748;28;45834;-76
2023/04/25 02:55:45;;;;;;;1.53;1.53;;;18.50;67.00;;;;;;5033241;28;44672;-76
2023/04/25 02:58:15;;;;;;;1.60;1.60;;;18.50;66.90;;;;;;5039481;28;43405;-76
2023/04/25 03:00:50;;;;;;;1.50;1.50;;;18.40;66.80;;;;;;5033330;28;43518;-76
2023/04/25 03:03:21;;;;;;;1.63;1.63;;;18.40;66.90;;;;;;5023460;28;45637;-75
2023/04/25 03:05:50;;;;;;;1.27;1.27;;;18.40;67.10;;;;;;5029936;28;43450;-75
2023/04/25 03:08:25;;;;;;;1.70;1.70;;;18.30;67.20;;;;;;5033617;28;43470;-75
2023/04/25 03:10:55;;;;;;;1.40;1.40;;;18.30;67.40;;;;;;5030699;28;43432;-75
2023/04/25 03:13:23;;;;;;;1.60;1.60;;;18.30;67.30;;;;;;5029079;28;45453;-76
2023/04/25 03:15:52;;;;;;;1.40;1.40;;;18.30;67.40;;;;;;5028174;28;43893;-76
2023/04/25 03:18:20;;;;;;;1.60;1.60;;;18.30;67.40;;;;;;5032760;28;43532;-76
2023/04/25 03:20:48;;;;;;;1.50;1.50;;;18.30;67.50;;;;;;5031991;28;43498;-75
2023/04/25 03:23:16;;;;;;;1.50;1.50;;;18.20;67.50;;;;;;5027598;28;45651;-75
2023/04/25 03:25:45;;;;;;;1.40;1.40;;;18.30;67.60;;;;;;5028951;28;43360;-75
2023/04/25 03:28:13;;;;;;;1.40;1.40;;;18.20;67.40;;;;;;5027239;28;43475;-75
2023/04/25 03:30:41;;;;;;;1.60;1.60;;;18.20;67.40;;;;;;5033768;28;43475;-75
2023/04/25 03:33:11;;;;;;;1.60;1.60;;;18.20;67.40;;;;;;5033656;28;44362;-75
2023/04/25 03:35:39;;;;;;;1.60;1.60;;;18.20;67.50;;;;;;5034151;28;43424;-75
2023/04/25 03:38:07;;;;;;;1.50;1.50;;;18.20;67.70;;;;;;5027608;28;43985;-75
2023/04/25 03:40:39;;;;;;;1.70;1.60;;;18.20;67.70;;;;;;5030746;28;43851;-74
2023/04/25 03:43:26;;;;;;;1.60;1.60;;;18.40;67.40;;;;;;5035886;28;43551;-76
2023/04/25 03:46:03;;;;;;;1.60;1.60;;;18.50;67.00;;;;;;5032292;28;43368;-76
2023/04/25 03:48:32;;;;;;;1.60;1.60;;;18.50;66.60;;;;;;5032432;28;43513;-76
2023/04/25 03:51:00;;;;;;;1.70;1.67;;;18.50;66.60;;;;;;5025239;28;43628;-77
2023/04/25 03:53:30;;;;;;;1.80;1.80;;;18.50;66.70;;;;;;5035049;28;44883;-76
2023/04/25 03:56:17;;;;;;;1.80;1.80;;;18.50;66.90;;;;;;5025910;28;43427;-75
2023/04/25 03:58:47;;;;;;;2.13;2.03;;;18.50;66.70;;;;;;5028216;28;43364;-77
2023/04/25 04:01:17;;;;;;;1.90;1.90;;;18.40;66.70;;;;;;5029778;28;43504;-75
2023/04/25 04:03:47;;;;;;;2.00;1.90;;;18.40;67.00;;;;;;5025577;28;44851;-73
2023/04/25 04:06:15;;;;;;;2.10;2.00;;;18.30;67.10;;;;;;5030214;28;45076;-76
2023/04/25 04:08:47;;;;;;;2.30;2.17;;;18.30;67.30;;;;;;5030539;28;43425;-75
2023/04/25 04:11:15;;;;;;;2.20;2.10;;;18.30;67.30;;;;;;5028781;28;43660;-75
2023/04/25 04:13:43;;;;;;;2.30;2.20;;;18.30;67.30;;;;;;5025974;28;43939;-75
2023/04/25 04:16:11;;;;;;;2.23;2.13;;;18.30;67.30;;;;;;5029102;28;45703;-75
2023/04/25 04:18:40;;;;;;;2.70;2.50;;;18.30;67.40;;;;;;5025018;28;43424;-75
2023/04/25 04:21:09;;;;;;;2.40;2.30;;;18.20;67.40;;;;;;5032446;28;43500;-77
2023/04/25 04:23:40;;;;;;;2.73;2.53;;;18.20;67.60;;;;;;5027797;28;44060;-76
2023/04/25 04:26:09;;;;;;;3.30;2.83;;;18.20;67.50;;;;;;5033279;28;44759;-75
2023/04/25 04:29:08;;;;;;;2.60;2.50;;;18.20;67.50;;;;;;5009472;28;43510;-75
2023/04/25 04:31:40;;;;;;;2.60;2.50;;;18.20;67.40;;;;;;5024722;28;43465;-77
2023/04/25 04:34:09;;;;;;;2.87;2.67;;;18.20;67.50;;;;;;5027023;28;46037;-77
2023/04/25 04:36:39;;;;;;;3.27;2.80;;;18.20;67.70;;;;;;5020311;28;44728;-74
2023/04/25 04:39:08;;;;;;;3.13;2.93;;;18.20;67.70;;;;;;5028313;28;43383;-76
2023/04/25 04:41:43;;;;;;;3.00;2.80;;;18.30;67.40;;;;;;5022064;28;44102;-75
2023/04/25 04:44:29;;;;;;;2.80;2.60;;;18.40;67.00;;;;;;5020583;28;43564;-75
2023/04/25 04:47:14;;;;;;;3.77;3.07;;;18.50;66.70;;;;;;5025550;28;45015;-76
2023/04/25 04:50:14;;;;;;;3.57;3.27;;;18.40;66.70;;;;;;5025836;28;43633;-75
2023/04/25 04:53:05;;;;;;;3.73;3.00;;;18.40;66.90;;;;;;5033097;28;43563;-75
2023/04/25 04:55:44;;;;;;;3.23;2.93;;;18.40;66.80;;;;;;5032290;28;44752;-75
2023/04/25 04:58:30;;;;;;;3.43;3.17;;;18.40;66.90;;;;;;5024502;28;43535;-74
2023/04/25 05:01:30;;;;;;;3.10;2.90;;;18.40;67.00;;;;;;5010202;28;43475;-75
2023/04/25 05:04:19;;;;;;;3.27;3.07;;;18.30;67.10;;;;;;5031754;28;43544;-74
2023/04/25 05:07:12;;;;;;;3.40;3.10;;;18.30;68.00;;;;;;5030524;28;45026;-76
2023/04/25 05:09:51;;;;;;;2.90;2.80;;;18.30;67.20;;;;;;5021674;28;43884;-76
2023/04/25 05:12:19;;;;;;;2.87;2.70;;;18.30;67.20;;;;;;5028372;28;43834;-76
2023/04/25 05:15:11;;;;;;;3.20;3.00;;;18.30;67.30;;;;;;5025553;28;43616;-76
2023/04/25 05:17:51;;;;;;;3.67;3.20;;;18.20;67.30;;;;;;5032799;28;43953;-74
2023/04/25 05:20:39;;;;;;;2.87;2.70;;;18.20;67.60;;;;;;5038587;28;43801;-76
2023/04/25 05:23:28;;;;;;;3.17;2.97;;;18.30;67.40;;;;;;5024526;28;43452;-75
2023/04/25 05:26:21;;;;;;;3.07;2.97;;;18.20;67.30;;;;;;5029448;28;43540;-74
2023/04/25 05:29:00;;;;;;;3.47;3.17;;;18.20;67.40;;;;;;5024686;28;45721;-76
2023/04/25 05:31:57;;;;;;;3.30;3.00;;;18.20;67.40;;;;;;5022330;28;44037;-76
2023/04/25 05:34:25;;;;;;;3.40;3.20;;;18.20;67.70;;;;;;5033521;28;43587;-76
2023/04/25 05:36:59;;;;;;;3.00;2.80;;;18.30;67.60;;;;;;5030291;28;43587;-74
2023/04/25 05:39:27;;;;;;;3.10;2.90;;;18.40;67.30;;;;;;5027737;28;44043;-74
2023/04/25 05:42:32;;;;;;;3.80;3.50;;;18.50;66.70;;;;;;5023284;28;44030;-75
2023/04/25 05:45:18;;;;;;;3.40;3.20;;;18.50;66.40;;;;;;5027770;28;43394;-74
2023/04/25 05:48:12;;;;;;;3.20;3.00;;;18.50;66.70;;;;;;5012242;28;43498;-76
2023/04/25 05:51:10;;;;;;;3.30;3.10;;;18.50;66.80;;;;;;5005237;28;43577;-76
2023/04/25 05:53:50;;;;;;;3.30;3.10;;;18.50;66.80;;;;;;5035409;28;44803;-76
2023/04/25 05:56:18;;;;;;;2.97;2.80;;;18.40;66.70;;;;;;5029078;28;43414;-76
2023/04/25 05:58:50;;;;;;;3.13;3.03;;;18.40;66.90;;;;;;5029743;28;43535;-74
2023/04/25 06:01:18;;;;;;;2.70;2.60;;;18.30;67.00;;;;;;5034481;28;47046;-76
2023/04/25 06:03:46;;;;;;;3.60;3.30;;;18.30;67.30;;;;;;5032526;28;43591;-76
2023/04/25 06:06:14;;;;;;;3.60;3.30;;;18.30;67.30;;;;;;5037501;28;43352;-76
2023/04/25 06:08:42;;;;;;;3.10;2.90;;;18.30;67.20;;;;;;5036637;28;43495;-74
2023/04/25 06:11:12;;;;;;;3.37;3.17;;;18.30;67.20;;;;;;5035890;28;45904;-75
2023/04/25 06:13:40;;;;;;;3.23;3.03;;;18.20;67.30;;;;;;5030515;28;43491;-75
2023/04/25 06:16:10;;;;;;;3.37;3.13;;;18.20;67.40;;;;;;5031666;28;43497;-76
2023/04/25 06:18:38;;;;;;;3.40;3.10;;;18.20;67.60;;;;;;5029220;28;43625;-76
2023/04/25 06:21:06;;;;;;;3.07;2.87;;;18.20;67.30;;;;;;5034113;28;45826;-76
2023/04/25 06:23:34;;;;;;;3.33;3.13;;;18.20;67.30;;;;;;5030075;28;44805;-75
2023/04/25 06:26:05;;;;;;;3.00;2.90;;;18.20;67.40;;;;;;5032856;28;44029;-76
2023/04/25 06:28:36;;;;;;;3.47;3.27;;;18.20;67.40;;;;;;5029429;28;43656;-75
2023/04/25 06:31:05;;;;;;;3.33;3.13;;;18.20;67.60;;;;;;5034857;28;44153;-76
2023/04/25 06:33:34;;;;;;;3.10;3.00;;;18.20;67.70;;;;;;5033582;28;43961;-76
2023/04/25 06:36:04;;;;;;;3.17;3.07;;;18.30;67.50;;;;;;5035417;28;43966;-76
2023/04/25 06:38:36;;;;;;;3.40;3.20;;;18.40;67.00;;;;;;5036034;28;43974;-77
2023/04/25 06:41:04;;;;;;;3.33;3.20;;;18.50;66.70;;;;;;5028910;28;45930;-75
2023/04/25 06:43:35;;;;;;;3.03;2.93;;;18.50;66.50;;;;;;5022455;28;43972;-75
2023/04/25 06:46:10;;;;;;;3.07;2.87;;;18.50;66.70;;;;;;5038516;28;43419;-74
2023/04/25 06:48:45;;;;;;;3.57;3.27;;;18.50;66.70;;;;;;5032883;28;44037;-75
2023/04/25 06:51:13;;;;;;;3.17;2.97;;;18.50;66.60;;;;;;5029507;28;43611;-74
2023/04/25 06:53:42;;;;;;;3.40;3.20;;;18.50;66.70;;;;;;5037224;28;44955;-75
2023/04/25 06:56:16;;;;;;;3.50;3.30;;;18.40;66.70;;;;;;5028426;28;43385;-75
2023/04/25 06:58:56;;;;;;;3.33;3.13;;;18.40;67.00;;;;;;5019388;28;43627;-75
2023/04/25 07:01:31;;;;;;;3.53;3.33;;;18.30;67.20;;;;;;5030048;28;43801;-75
2023/04/25 07:04:02;;;;;;;3.80;3.50;;;18.30;67.10;;;;;;5034353;28;43503;-76
2023/04/25 07:06:34;;;;;;;3.00;2.90;;;18.30;67.20;;;;;;5031875;28;43585;-76
2023/04/25 07:09:02;;;;;;;3.07;2.97;;;18.30;67.20;;;;;;5029244;28;43420;-77
2023/04/25 07:11:30;;;;;;;3.17;2.93;;;18.30;67.40;;;;;;5032163;28;44733;-76
2023/04/25 07:13:59;;;;;;;3.27;3.07;;;18.20;67.40;;;;;;5026094;28;44747;-75
2023/04/25 07:16:27;;;;;;;3.00;2.90;;;18.20;67.50;;;;;;5031728;28;44067;-75
2023/04/25 07:18:56;;;;;;;2.97;2.87;;;18.20;67.30;;;;;;5029072;28;43534;-76
2023/04/25 07:21:26;;;;;;;3.87;3.67;;;18.20;67.30;;;;;;5034017;28;44953;-76
2023/04/25 07:23:55;;;;;;;3.10;3.00;;;18.20;67.30;;;;;;5030343;28;44679;-76
2023/04/25 07:26:28;;;;;;;3.23;3.07;;;18.20;67.50;;;;;;5026252;28;43489;-76
2023/04/25 07:29:19;;;;;;;3.03;2.90;;;18.20;67.70;;;;;;5036694;28;43632;-76
2023/04/25 07:31:47;;;;;;;2.87;2.67;;;18.20;67.60;;;;;;5035606;28;43959;-76
2023/04/25 07:34:15;;;;;;;3.10;2.90;;;18.30;67.30;;;;;;5030314;28;43545;-76
2023/04/25 07:36:46;;;;;;;3.43;3.23;;;18.40;66.80;;;;;;5023133;28;43464;-76
2023/04/25 07:39:14;;;;;;;4.03;3.73;;;18.50;66.60;;;;;;5032788;28;43368;-76
2023/04/25 07:41:42;;;;;;;3.63;3.33;;;18.50;66.50;;;;;;5030867;28;43994;-76
2023/04/25 07:44:15;;;;;;;3.00;2.90;;;18.40;66.70;;;;;;5029073;28;43482;-76
2023/04/25 07:46:44;;;;;;;3.20;3.10;;;18.50;66.90;;;;;;5030386;28;43445;-76
2023/04/25 07:49:13;;;;;;;2.97;2.80;;;18.40;66.70;;;;;;5022057;28;43467;-77
2023/04/25 07:51:44;;;;;;;2.80;2.70;;;18.40;66.70;;;;;;5029792;28;46486;-76
2023/04/25 07:54:16;;;;;;;3.00;2.90;;;18.40;66.90;;;;;;5033446;28;44662;-76
2023/04/25 07:56:49;;;;;;;3.20;3.10;;;18.30;67.00;;;;;;5027458;28;43495;-76
2023/04/25 07:59:24;;;;;;;3.10;2.90;;;18.30;67.40;;;;;;5035530;28;43512;-77
2023/04/25 08:01:52;;;;;;;3.00;2.90;;;18.30;67.20;;;;;;5029358;28;44851;-76
2023/04/25 08:04:20;;;;;;;2.90;2.80;;;18.30;67.20;;;;;;5029546;28;43796;-76
2023/04/25 08:06:56;;;;;;;2.80;2.70;;;18.20;67.30;;;;;;5028570;28;43475;-77
2023/04/25 08:09:29;;;;;;;2.80;2.70;;;18.20;67.40;;;;;;5027334;28;44060;-76
2023/04/25 08:11:58;;;;;;;3.40;3.20;;;18.20;67.50;;;;;;5016233;28;43895;-76
2023/04/25 08:14:35;;;;;;;2.77;2.67;;;18.20;67.50;;;;;;5024599;28;44736;-77
2023/04/25 08:17:05;;;;;;;2.93;2.83;;;18.20;67.30;;;;;;5022868;28;43785;-76
2023/04/25 08:19:39;;;;;;;2.70;2.60;;;18.20;67.40;;;;;;5032871;28;43490;-77
2023/04/25 08:22:09;;;;;;;2.80;2.70;;;18.20;67.40;;;;;;5031501;28;45699;-76
2023/04/25 08:24:49;;;;;;;2.70;2.50;;;18.20;67.60;;;;;;5026416;28;44060;-77
2023/04/25 08:27:20;;;;;;;2.70;2.60;;;18.20;67.70;;;;;;5027000;28;43990;-77
2023/04/25 08:29:48;;;;;;;2.67;2.57;;;18.20;67.60;;;;;;5027823;28;43491;-76
2023/04/25 08:32:16;;;;;;;2.93;2.83;;;18.30;67.30;;;;;;5033638;28;43815;-76
2023/04/25 08:34:58;;;;;;;2.70;2.60;;;18.40;67.00;;;;;;5032890;28;43463;-77
2023/04/25 08:37:26;;;;;;;2.83;2.73;;;18.40;66.70;;;;;;5024253;28;43500;-76
2023/04/25 08:40:02;;;;;;;2.70;2.60;;;18.40;66.70;;;;;;5026298;28;43485;-76
2023/04/25 08:42:41;;;;;;;2.77;2.67;;;18.40;67.00;;;;;;5027995;28;44037;-76
2023/04/25 08:45:12;;;;;;;2.80;2.70;;;18.40;66.90;;;;;;5026546;28;43332;-76
2023/04/25 08:47:42;;;;;;;2.73;2.63;;;18.40;66.90;;;;;;5027802;28;43472;-77
2023/04/25 08:50:10;;;;;;;2.60;2.50;;;18.30;66.90;;;;;;5024900;28;43884;-76
2023/04/25 08:52:43;;;;;;;2.83;2.73;;;18.30;67.10;;;;;;5034629;28;46167;-77
2023/04/25 08:55:13;;;;;;;3.10;3.00;;;18.30;67.20;;;;;;5032239;28;44847;-76
2023/04/25 08:57:42;;;;;;;2.70;2.60;;;18.20;67.30;;;;;;5034242;28;43407;-76
2023/04/25 09:00:11;;;;;;;2.20;2.20;;;18.20;67.80;;;;;;5028785;28;43509;-77
2023/04/25 09:02:42;;;;;;;2.60;2.50;;;18.20;67.20;;;;;;5030402;28;45538;-76
2023/04/25 09:05:10;;;;;;;2.87;2.70;;;18.20;67.30;;;;;;5025051;28;43564;-77
2023/04/25 09:07:38;;;;;;;2.30;2.30;;;18.20;67.40;;;;;;5032295;28;43359;-76
2023/04/25 09:10:07;;;;;;;2.40;2.40;;;18.20;67.60;;;;;;5027143;28;43851;-76
2023/04/25 09:12:39;;;;;;;2.80;2.60;;;18.20;67.50;;;;;;5024623;28;45704;-76
2023/04/25 09:15:10;;;;;;;2.67;2.57;;;18.30;67.30;;;;;;5026399;28;44600;-76
2023/04/25 09:17:55;;;;;;;2.80;2.63;;;18.40;66.80;;;;;;5034070;28;44121;-77
2023/04/25 09:20:25;;;;;;;2.60;2.50;;;18.50;66.70;;;;;;5022588;28;43487;-76
2023/04/25 09:23:02;;;;;;;2.60;2.50;;;18.50;66.60;;;;;;5030215;28;46186;-76
2023/04/25 09:25:35;;;;;;;2.77;2.60;;;18.40;66.80;;;;;;5027611;28;44725;-77
2023/04/25 09:28:10;;;;;;;2.60;2.50;;;18.40;66.70;;;;;;5031510;28;43484;-77
2023/04/25 09:30:38;;;;;;;2.63;2.53;;;18.40;66.70;;;;;;5026019;28;43604;-76
2023/04/25 09:33:12;;;;;;;2.67;2.47;;;18.40;66.80;;;;;;5025210;28;43879;-77
2023/04/25 09:35:45;;;;;;;2.53;2.43;;;18.30;67.00;;;;;;5028685;28;44710;-77
2023/04/25 09:38:26;;;;;;;2.70;2.60;;;18.30;67.10;;;;;;5023386;28;43465;-76
2023/04/25 09:40:59;;;;;;;2.57;2.47;;;18.20;67.20;;;;;;5038644;28;43530;-76
2023/04/25 09:43:41;;;;;;;2.23;2.13;;;18.20;67.10;;;;;;5028204;28;45645;-76
2023/04/25 09:46:10;;;;;;;2.50;2.40;;;18.20;67.20;;;;;;5038018;28;43423;-76
2023/04/25 09:48:42;;;;;;;2.17;2.17;;;18.20;67.30;;;;;;5034133;28;43891;-76
2023/04/25 09:51:13;;;;;;;2.40;2.30;;;18.20;67.40;;;;;;5030966;28;43420;-76
2023/04/25 09:53:43;;;;;;;2.67;2.57;;;18.20;67.60;;;;;;5032010;28;44036;-76
2023/04/25 09:56:29;;;;;;;2.20;2.20;;;18.20;67.50;;;;;;5030122;28;43949;-76
2023/04/25 09:58:58;;;;;;;2.30;2.20;;;18.30;67.20;;;;;;5028687;28;43454;-76
2023/04/25 10:01:27;;;;;;;2.33;2.23;;;18.40;66.90;;;;;;5024866;28;43447;-76
2023/04/25 10:04:06;;;;;;;2.13;2.10;;;18.40;66.90;;;;;;5023130;28;45020;-77
2023/04/25 10:06:47;;;;;;;2.40;2.30;;;18.30;66.90;;;;;;5033224;28;43919;-76
2023/04/25 10:09:17;;;;;;;2.50;2.40;;;18.30;67.10;;;;;;5033708;28;43848;-76
2023/04/25 10:11:46;;;;;;;2.47;2.37;;;18.30;67.00;;;;;;5023407;28;44031;-76
2023/04/25 10:14:18;;;;;;;2.20;2.20;;;18.30;67.20;;;;;;5031069;28;43603;-76
2023/04/25 10:16:46;;;;;;;2.47;2.47;;;18.30;67.20;;;;;;5036590;28;43456;-76
2023/04/25 10:19:14;;;;;;;2.40;2.30;;;18.20;67.30;;;;;;5027705;28;43864;-76
2023/04/25 10:21:47;;;;;;;2.33;2.23;;;18.20;67.50;;;;;;5030735;28;44171;-77
2023/04/25 10:24:15;;;;;;;1.80;1.80;;;18.20;67.50;;;;;;5035003;28;44043;-77
2023/04/25 10:26:43;;;;;;;2.13;2.07;;;18.20;67.50;;;;;;5033180;28;43474;-76
2023/04/25 10:29:11;;;;;;;2.40;2.30;;;18.20;67.60;;;;;;5038498;28;43558;-77
2023/04/25 10:31:47;;;;;;;2.30;2.23;;;18.10;67.60;;;;;;5034631;28;43415;-76
2023/04/25 10:34:15;;;;;;;2.20;2.10;;;18.10;67.60;;;;;;5027043;28;43588;-77
2023/04/25 10:36:43;;;;;;;2.50;2.40;;;18.10;67.80;;;;;;5036399;28;43459;-77
2023/04/25 10:39:10;;;;;;;2.40;2.30;;;18.10;67.70;;;;;;5029065;28;43470;-76
2023/04/25 10:41:49;;;;;;;2.30;2.20;;;18.20;67.40;;;;;;5028434;28;43468;-76
2023/04/25 10:44:17;;;;;;;1.97;1.93;;;18.30;67.10;;;;;;5024404;28;43943;-77
2023/04/25 10:46:47;;;;;;;2.47;2.37;;;18.40;67.00;;;;;;5026134;28;43964;-77
2023/04/25 10:49:30;;;;;;;2.33;2.23;;;18.30;67.10;;;;;;5028602;28;43506;-76
2023/04/25 10:52:18;;;;;;;2.50;2.40;;;18.30;67.30;;;;;;5023378;28;43533;-76
2023/04/25 10:54:51;;;;;;;1.77;1.77;;;18.30;67.20;;;;;;5026473;28;44041;-77
2023/04/25 10:57:33;;;;;;;2.07;2.00;;;18.30;67.30;;;;;;5025001;28;43515;-77
2023/04/25 11:00:11;;;;;;;1.87;1.87;;;18.20;67.40;;;;;;5022438;28;43492;-77
2023/04/25 11:02:46;;;;;;;2.53;2.43;;;18.20;67.40;;;;;;5025707;28;43519;-76
2023/04/25 11:05:22;;;;;;;2.43;2.33;;;18.20;67.60;;;;;;5024570;28;43894;-76
2023/04/25 11:07:51;;;;;;;1.97;1.97;;;18.20;67.60;;;;;;5021876;28;44856;-76
2023/04/25 11:10:35;;;;;;;2.20;2.20;;;18.20;67.50;;;;;;5027161;28;43386;-76
2023/04/25 11:13:03;;;;;;;2.30;2.30;;;18.20;67.70;;;;;;5025788;28;43771;-76
2023/04/25 11:15:30;;;;;;;1.93;1.93;;;18.20;67.60;;;;;;5034788;28;43733;-75
2023/04/25 11:18:00;;;;;;;2.30;2.20;;;18.10;67.60;;;;;;5030330;28;44989;-75
2023/04/25 11:20:30;;;;;;;2.07;2.07;;;18.10;67.70;;;;;;5029814;28;43411;-74
2023/04/25 11:22:58;;;;;;;2.20;2.10;;;18.10;67.50;;;;;;5031678;28;43516;-75
2023/04/25 11:25:26;;;;;;;2.07;2.00;;;18.10;67.50;;;;;;5029116;28;45419;-76
2023/04/25 11:27:55;;;;;;;2.20;2.20;;;18.10;67.60;;;;;;5031169;28;46118;-75
2023/04/25 11:30:24;;;;;;;2.17;2.17;;;18.10;67.50;;;;;;5031391;28;43818;-76
2023/04/25 11:32:52;;;;;;;2.13;2.13;;;18.10;67.50;;;;;;5031065;28;43428;-76
2023/04/25 11:35:22;;;;;;;2.53;2.43;;;18.10;67.90;;;;;;5025486;28;43600;-77
2023/04/25 11:37:51;;;;;;;2.40;2.30;;;18.10;67.70;;;;;;5030337;28;43391;-76
2023/04/25 11:40:19;;;;;;;2.70;2.60;;;18.30;67.40;;;;;;5038735;28;43984;-75
2023/04/25 11:42:48;;;;;;;2.20;2.20;;;18.30;66.90;;;;;;5035527;28;43432;-77
2023/04/25 11:45:18;;;;;;;2.57;2.47;;;18.40;66.40;;;;;;5033118;28;43810;-77
2023/04/25 11:47:46;;;;;;;2.50;2.40;;;18.30;66.40;;;;;;5036042;28;45032;-76
2023/04/25 11:50:15;;;;;;;2.27;2.20;;;18.30;66.90;;;;;;5031211;28;43396;-77
2023/04/25 11:52:45;;;;;;;2.30;2.20;;;18.30;66.70;;;;;;5030176;28;43340;-77
2023/04/25 11:55:14;;;;;;;2.20;2.10;;;18.30;66.20;;;;;;5043135;28;43886;-76
2023/04/25 11:57:43;;;;;;;2.33;2.20;;;18.30;66.50;;;;;;5027063;28;44883;-78
2023/04/25 12:00:12;;;;;;;2.20;2.20;;;18.20;65.70;;;;;;5030204;28;43419;-75
2023/04/25 12:02:45;;;;;;;2.50;2.40;;;18.20;66.20;;;;;;5029445;28;43476;-75
2023/04/25 12:05:15;;;;;;;9.50;2.70;;;18.20;67.10;;;;;;5027778;28;45835;-75
2023/04/25 12:08:13;;;;;;;2.43;2.33;;;18.20;66.60;;;;;;5028402;28;43395;-76
2023/04/25 12:10:41;;;;;;;2.47;2.37;;;18.20;66.90;;;;;;5024018;28;43489;-75
2023/04/25 12:13:20;;;;;;;2.80;2.50;;;18.20;66.90;;;;;;5026479;28;43433;-76
2023/04/25 12:15:48;;;;;;;2.43;2.33;;;18.10;66.90;;;;;;5029959;28;43758;-76
2023/04/25 12:18:20;;;;;;;2.63;2.40;;;18.10;67.10;;;;;;5028107;28;43524;-76
2023/04/25 12:20:49;;;;;;;2.37;2.27;;;18.10;67.20;;;;;;5028134;28;43488;-77
2023/04/25 12:23:23;;;;;;;3.00;2.13;;;18.10;68.00;;;;;;5033949;28;43459;-76
2023/04/25 12:25:51;;;;;;;2.50;2.30;;;18.10;67.50;;;;;;5036894;28;43608;-77
2023/04/25 12:28:23;;;;;;;3.50;2.10;;;18.10;67.60;;;;;;5040015;28;43434;-77
2023/04/25 12:30:55;;;;;;;2.97;2.20;;;18.10;67.50;;;;;;5032188;28;43974;-75
2023/04/25 12:33:24;;;;;;;3.07;2.40;;;18.10;67.70;;;;;;5036465;28;43594;-76
2023/04/25 12:35:52;;;;;;;2.57;2.37;;;18.20;67.70;;;;;;5032755;28;43667;-76
2023/04/25 12:38:29;;;;;;;2.50;2.40;;;18.30;67.30;;;;;;5034936;28;43898;-76
2023/04/25 12:40:57;;;;;;;1.90;1.90;;;18.40;66.90;;;;;;5025090;28;43409;-76
2023/04/25 12:43:27;;;;;;;2.00;1.90;;;18.60;66.60;;;;;;5033617;28;43384;-76
2023/04/25 12:45:56;;;;;;;6.00;2.20;;;18.70;66.10;;;;;;5025506;28;43738;-76
2023/04/25 12:48:24;;;;;;;3.00;2.13;;;18.90;65.60;;;;;;5032086;28;43422;-76
2023/04/25 12:50:52;;;;;;;2.00;1.90;;;19.10;65.10;;;;;;5021478;28;43415;-76
2023/04/25 12:53:21;;;;;;;2.00;1.90;;;19.20;64.60;;;;;;5034006;28;43390;-76
2023/04/25 12:55:50;;;;;;;1.97;1.97;;;19.30;64.10;;;;;;5030419;28;45969;-76
2023/04/25 12:58:19;;;;;;;2.13;2.03;;;19.40;63.80;;;;;;5025674;28;46243;-76
2023/04/25 13:00:48;;;;;;;1.80;1.70;;;19.50;63.50;;;;;;5029021;28;43500;-77
2023/04/25 13:03:16;;;;;;;2.00;1.90;;;19.50;63.40;;;;;;5030260;28;43801;-76
2023/04/25 13:05:44;;;;;;;1.70;1.70;;;19.50;63.70;;;;;;5028610;28;43729;-76
2023/04/25 13:08:12;;;;;;;2.40;2.30;;;19.30;63.90;;;;;;5027758;28;43898;-76
2023/04/25 13:10:40;;;;;;;1.90;1.83;;;19.10;64.40;;;;;;5028198;28;43396;-76
2023/04/25 13:13:09;;;;;;;2.40;2.30;;;19.00;65.10;;;;;;5028269;28;43499;-75